Time;durP1;ratioP1;P1;durP2;ratioP2;P2;SDS_P1;SDS_P2;PMS_P1;PMS_P2;Temp;Humidity;BMP_temperature;BMP_pressure;BME280_temperature;BME280_humidity;BME280_pressure;Samples;Min_cycle;Max_cycle;Signal;HPM_P1;HPM_P2
2021/12/20 00:01:51;;;;;;;7.90;2.93;;;;;;;;;;5035432;28;20730;-62
2021/12/20 00:04:18;;;;;;;7.83;2.73;;;;;;;;;;5035724;28;20205;-63
2021/12/20 00:06:45;;;;;;;6.57;2.30;;;;;;;;;;5035406;28;20235;-63
2021/12/20 00:09:13;;;;;;;9.20;2.50;;;;;;;;;;5035402;28;20220;-62
2021/12/20 00:11:40;;;;;;;10.47;3.83;;;;;;;;;;5035468;28;20209;-62
2021/12/20 00:14:08;;;;;;;6.13;2.67;;;;;;;;;;5035377;28;20204;-62
2021/12/20 00:16:35;;;;;;;5.77;1.87;;;;;;;;;;5035154;28;20275;-63
2021/12/20 00:19:02;;;;;;;4.40;2.17;;;;;;;;;;5035297;28;20197;-62
2021/12/20 00:21:30;;;;;;;2.80;1.73;;;;;;;;;;5034990;28;20543;-62
2021/12/20 00:23:57;;;;;;;6.60;2.47;;;;;;;;;;5035003;28;20247;-62
2021/12/20 00:26:25;;;;;;;3.57;1.83;;;;;;;;;;5035077;28;20212;-63
2021/12/20 00:28:52;;;;;;;4.70;2.07;;;;;;;;;;5035153;28;20201;-63
2021/12/20 00:31:19;;;;;;;4.17;2.37;;;;;;;;;;5035212;28;20254;-62
2021/12/20 00:33:46;;;;;;;6.20;2.37;;;;;;;;;;5034899;28;20694;-62
2021/12/20 00:36:21;;;;;;;5.77;2.10;;;;;;;;;;5033712;28;20311;-62
2021/12/20 00:41:30;;;;;;;5.70;2.13;;;;;;;;;;5034963;28;20189;-62
2021/12/20 00:43:59;;;;;;;7.23;2.50;;;;;;;;;;5034824;28;20207;-62
2021/12/20 00:46:46;;;;;;;6.20;2.43;;;;;;;;;;5034592;28;20647;-62
2021/12/20 00:49:14;;;;;;;5.03;2.20;;;;;;;;;;5034611;28;20302;-62
2021/12/20 00:51:41;;;;;;;7.57;1.97;;;;;;;;;;5034397;28;20636;-63
2021/12/20 00:54:08;;;;;;;4.07;2.23;;;;;;;;;;5034687;28;20208;-62
2021/12/20 00:56:35;;;;;;;5.40;2.20;;;;;;;;;;5034244;28;20228;-64
2021/12/20 00:59:02;;;;;;;7.97;2.43;;;;;;;;;;5034529;28;20197;-63
2021/12/20 01:01:29;;;;;;;11.73;2.77;;;;;;;;;;5034322;28;20196;-63
2021/12/20 01:03:57;;;;;;;2.73;1.43;;;;;;;;;;5034142;28;20565;-63
2021/12/20 01:06:25;;;;;;;6.33;1.83;;;;;;;;;;5034229;28;20197;-63
2021/12/20 01:08:52;;;;;;;5.77;2.13;;;;;;;;;;5034420;28;20201;-63
2021/12/20 01:11:24;;;;;;;5.80;2.33;;;;;;;;;;5034415;28;20204;-63
2021/12/20 01:13:51;;;;;;;5.57;2.13;;;;;;;;;;5034257;28;20220;-63
2021/12/20 01:16:29;;;;;;;8.53;2.30;;;;;;;;;;5034212;28;20231;-63
2021/12/20 01:18:58;;;;;;;5.77;2.37;;;;;;;;;;5032935;28;20196;-63
2021/12/20 01:21:26;;;;;;;13.43;2.70;;;;;;;;;;5032970;28;20200;-62
2021/12/20 01:23:53;;;;;;;7.30;2.30;;;;;;;;;;5033805;28;20660;-62
2021/12/20 01:26:20;;;;;;;3.73;1.77;;;;;;;;;;5033860;28;20204;-63
2021/12/20 01:28:48;;;;;;;3.10;1.77;;;;;;;;;;5034124;28;20207;-63
2021/12/20 01:31:15;;;;;;;8.73;1.63;;;;;;;;;;5034026;28;20224;-62
2021/12/20 01:33:42;;;;;;;5.23;2.37;;;;;;;;;;5033839;28;20200;-63
2021/12/20 01:36:10;;;;;;;3.23;1.77;;;;;;;;;;5033695;28;20224;-63
2021/12/20 01:38:37;;;;;;;7.80;1.80;;;;;;;;;;5033443;28;20613;-62
2021/12/20 01:41:05;;;;;;;1.30;1.20;;;;;;;;;;5033585;28;20224;-63
2021/12/20 01:43:32;;;;;;;6.23;2.00;;;;;;;;;;5033734;28;20207;-62
2021/12/20 01:46:00;;;;;;;2.63;1.63;;;;;;;;;;5033344;28;20200;-62
2021/12/20 01:48:29;;;;;;;4.07;2.07;;;;;;;;;;5033584;28;20262;-62
2021/12/20 01:53:35;;;;;;;5.43;1.63;;;;;;;;;;5033559;28;20192;-62
2021/12/20 01:56:03;;;;;;;4.43;2.50;;;;;;;;;;5033408;28;20225;-63
2021/12/20 01:58:31;;;;;;;4.03;2.40;;;;;;;;;;5033137;28;20204;-62
2021/12/20 02:03:38;;;;;;;6.83;1.53;;;;;;;;;;5033483;28;20196;-62
2021/12/20 02:06:12;;;;;;;5.37;2.00;;;;;;;;;;5033130;28;20199;-63
2021/12/20 02:08:40;;;;;;;6.47;1.97;;;;;;;;;;5033264;28;20255;-63
2021/12/20 02:11:09;;;;;;;3.43;1.90;;;;;;;;;;5033012;28;20565;-63
2021/12/20 02:13:40;;;;;;;3.83;2.00;;;;;;;;;;5032920;28;20204;-63
2021/12/20 02:16:07;;;;;;;13.33;3.67;;;;;;;;;;5033066;28;20315;-63
2021/12/20 02:18:35;;;;;;;4.27;2.57;;;;;;;;;;5033073;28;20205;-62
2021/12/20 02:21:04;;;;;;;7.03;2.77;;;;;;;;;;5033150;28;20203;-63
2021/12/20 02:23:31;;;;;;;3.97;2.07;;;;;;;;;;5033030;28;20227;-63
2021/12/20 02:26:00;;;;;;;6.10;2.10;;;;;;;;;;5032824;28;20533;-63
2021/12/20 02:28:35;;;;;;;6.73;2.90;;;;;;;;;;5033104;28;20201;-63
2021/12/20 02:39:11;;;;;;;5.23;2.10;;;;;;;;;;5032985;28;20287;-62
2021/12/20 02:41:38;;;;;;;3.20;2.03;;;;;;;;;;5031495;28;20204;-63
2021/12/20 02:44:11;;;;;;;7.60;3.23;;;;;;;;;;5032933;28;20258;-63
2021/12/20 02:49:22;;;;;;;9.37;2.40;;;;;;;;;;5032428;28;20207;-63
2021/12/20 02:51:52;;;;;;;5.57;2.90;;;;;;;;;;5032762;28;20189;-62
2021/12/20 02:54:21;;;;;;;3.93;2.10;;;;;;;;;;5033198;28;20204;-62
2021/12/20 02:56:49;;;;;;;4.60;2.30;;;;;;;;;;5031588;28;20233;-62
2021/12/20 02:59:17;;;;;;;4.87;2.33;;;;;;;;;;5032872;28;20227;-62
2021/12/20 03:01:49;;;;;;;2.30;1.57;;;;;;;;;;5032810;28;20292;-62
2021/12/20 03:04:17;;;;;;;2.87;2.00;;;;;;;;;;5032912;28;20455;-62
2021/12/20 03:06:57;;;;;;;3.77;2.00;;;;;;;;;;5032618;28;20204;-63
2021/12/20 03:09:29;;;;;;;4.07;1.90;;;;;;;;;;5032441;28;20645;-63
2021/12/20 03:11:59;;;;;;;2.97;1.57;;;;;;;;;;5032613;28;20189;-63
2021/12/20 03:14:35;;;;;;;2.33;1.47;;;;;;;;;;5032448;28;20205;-62
2021/12/20 03:17:04;;;;;;;3.83;1.80;;;;;;;;;;5032258;28;20216;-63
2021/12/20 03:19:31;;;;;;;3.67;1.97;;;;;;;;;;5032542;28;20211;-63
2021/12/20 03:21:59;;;;;;;2.70;2.00;;;;;;;;;;5031345;28;20205;-62
2021/12/20 03:24:27;;;;;;;5.17;2.77;;;;;;;;;;5032447;28;20247;-62
2021/12/20 03:26:55;;;;;;;2.60;2.00;;;;;;;;;;5034289;28;20212;-62
2021/12/20 03:29:22;;;;;;;4.20;2.33;;;;;;;;;;5036240;28;20291;-62
2021/12/20 03:31:50;;;;;;;4.03;2.27;;;;;;;;;;5036352;28;20318;-63
2021/12/20 03:34:18;;;;;;;6.33;2.80;;;;;;;;;;5036274;28;20205;-63
2021/12/20 03:36:45;;;;;;;3.13;2.33;;;;;;;;;;5036095;28;20319;-62
2021/12/20 03:39:13;;;;;;;5.33;2.80;;;;;;;;;;5035822;28;20207;-62
2021/12/20 03:41:42;;;;;;;3.10;2.07;;;;;;;;;;5036045;28;20263;-63
2021/12/20 03:44:09;;;;;;;3.17;2.03;;;;;;;;;;5036006;28;20208;-62
2021/12/20 03:46:37;;;;;;;6.43;2.60;;;;;;;;;;5035822;28;20200;-63
2021/12/20 03:49:05;;;;;;;4.97;3.17;;;;;;;;;;5035505;28;20262;-62
2021/12/20 03:51:33;;;;;;;9.57;4.10;;;;;;;;;;5035761;28;20195;-62
2021/12/20 03:54:00;;;;;;;4.90;2.43;;;;;;;;;;5034687;28;20208;-62
2021/12/20 03:56:27;;;;;;;7.63;3.57;;;;;;;;;;5035513;28;20239;-62
2021/12/20 03:58:55;;;;;;;9.23;2.60;;;;;;;;;;5035729;28;20300;-62
2021/12/20 04:01:24;;;;;;;12.70;4.27;;;;;;;;;;5035495;28;20592;-62
2021/12/20 04:03:52;;;;;;;7.60;4.03;;;;;;;;;;5034220;28;20648;-62
2021/12/20 04:06:20;;;;;;;6.57;2.97;;;;;;;;;;5035509;28;20208;-62
2021/12/20 04:08:48;;;;;;;7.53;3.20;;;;;;;;;;5035379;28;20577;-62
2021/12/20 04:11:16;;;;;;;8.33;2.93;;;;;;;;;;5035650;28;20254;-62
2021/12/20 04:13:43;;;;;;;3.03;2.30;;;;;;;;;;5035465;28;20204;-63
2021/12/20 04:16:10;;;;;;;3.80;1.73;;;;;;;;;;5035076;28;20251;-63
2021/12/20 04:18:38;;;;;;;5.30;2.80;;;;;;;;;;5035045;28;20208;-62
2021/12/20 04:21:06;;;;;;;3.90;2.20;;;;;;;;;;5035270;28;20207;-62
2021/12/20 04:23:34;;;;;;;5.97;3.33;;;;;;;;;;5035321;28;20205;-62
2021/12/20 04:26:01;;;;;;;3.40;2.23;;;;;;;;;;5034916;28;20197;-62
2021/12/20 04:28:28;;;;;;;4.23;1.63;;;;;;;;;;5034884;28;20196;-63
2021/12/20 04:30:56;;;;;;;2.33;1.93;;;;;;;;;;5035164;28;20197;-62
2021/12/20 04:33:23;;;;;;;8.90;2.53;;;;;;;;;;5035110;28;20205;-62
2021/12/20 04:35:51;;;;;;;3.43;2.17;;;;;;;;;;5034935;28;20203;-63
2021/12/20 04:38:20;;;;;;;7.20;2.40;;;;;;;;;;5034733;28;20200;-63
2021/12/20 04:40:47;;;;;;;4.87;2.00;;;;;;;;;;5035059;28;20208;-63
2021/12/20 04:43:14;;;;;;;4.90;2.23;;;;;;;;;;5034927;28;20204;-63
2021/12/20 04:45:42;;;;;;;3.23;2.00;;;;;;;;;;5034787;28;20197;-63
2021/12/20 04:48:09;;;;;;;2.20;1.60;;;;;;;;;;5034779;28;20204;-63
2021/12/20 04:50:37;;;;;;;5.93;2.50;;;;;;;;;;5034178;28;20252;-63
2021/12/20 04:53:04;;;;;;;6.90;3.00;;;;;;;;;;5034739;28;20201;-63
2021/12/20 04:55:32;;;;;;;4.13;2.50;;;;;;;;;;5034360;28;20258;-63
2021/12/20 04:58:01;;;;;;;4.87;2.17;;;;;;;;;;5034296;28;20224;-63
2021/12/20 05:00:33;;;;;;;4.63;2.00;;;;;;;;;;5034198;28;20211;-64
2021/12/20 05:03:01;;;;;;;6.03;2.17;;;;;;;;;;5032670;28;20662;-65
2021/12/20 05:05:29;;;;;;;3.87;1.90;;;;;;;;;;5046056;28;20589;-64
2021/12/20 05:08:00;;;;;;;2.53;1.70;;;;;;;;;;5050964;28;20251;-65
2021/12/20 05:10:34;;;;;;;4.23;2.03;;;;;;;;;;5078878;28;20231;-65
2021/12/20 05:13:05;;;;;;;2.27;1.97;;;;;;;;;;5051210;28;20216;-64
2021/12/20 05:15:33;;;;;;;4.10;2.33;;;;;;;;;;5054396;28;20223;-65
2021/12/20 05:18:00;;;;;;;5.47;2.93;;;;;;;;;;5048650;28;20278;-64
2021/12/20 05:20:28;;;;;;;6.00;3.57;;;;;;;;;;5053821;28;20227;-64
2021/12/20 05:22:56;;;;;;;4.37;2.17;;;;;;;;;;5053126;28;20624;-64
2021/12/20 05:25:25;;;;;;;6.00;2.60;;;;;;;;;;5052761;28;20252;-63
2021/12/20 05:27:53;;;;;;;2.80;2.03;;;;;;;;;;5047715;28;20327;-64
2021/12/20 05:30:21;;;;;;;4.40;2.33;;;;;;;;;;5032667;28;20588;-63
2021/12/20 05:32:48;;;;;;;3.67;1.90;;;;;;;;;;5032636;28;20225;-63
2021/12/20 05:35:17;;;;;;;3.77;2.43;;;;;;;;;;5032763;28;20240;-65
2021/12/20 05:37:44;;;;;;;4.50;1.90;;;;;;;;;;5033059;28;20243;-65
2021/12/20 05:40:13;;;;;;;2.97;2.07;;;;;;;;;;5032441;28;20229;-64
2021/12/20 05:42:41;;;;;;;4.27;2.60;;;;;;;;;;5032960;28;20234;-63
2021/12/20 05:45:09;;;;;;;4.93;2.80;;;;;;;;;;5032364;28;20320;-65
2021/12/20 05:47:36;;;;;;;4.43;2.60;;;;;;;;;;5032493;28;20237;-64
2021/12/20 05:50:06;;;;;;;2.37;2.13;;;;;;;;;;5069677;28;20602;-66
2021/12/20 05:52:33;;;;;;;4.37;2.60;;;;;;;;;;5057461;28;20611;-65
2021/12/20 05:55:00;;;;;;;6.60;3.03;;;;;;;;;;5050691;28;20270;-65
2021/12/20 05:57:28;;;;;;;3.70;2.30;;;;;;;;;;5052483;28;20285;-66
2021/12/20 05:59:55;;;;;;;6.37;3.57;;;;;;;;;;5051652;28;20227;-66
2021/12/20 06:02:23;;;;;;;7.47;2.57;;;;;;;;;;5051537;28;20274;-66
2021/12/20 06:04:50;;;;;;;4.90;2.80;;;;;;;;;;5051620;28;20224;-68
2021/12/20 06:07:21;;;;;;;2.97;2.70;;;;;;;;;;5051293;28;20698;-66
2021/12/20 06:09:49;;;;;;;2.67;2.23;;;;;;;;;;5031963;28;20232;-66
2021/12/20 06:12:16;;;;;;;5.40;2.90;;;;;;;;;;5032190;28;20221;-66
2021/12/20 06:14:46;;;;;;;3.23;2.80;;;;;;;;;;5031741;28;20248;-66
2021/12/20 06:17:13;;;;;;;23.53;4.77;;;;;;;;;;5031389;28;20255;-66
2021/12/20 06:19:40;;;;;;;4.73;3.23;;;;;;;;;;5062348;28;20227;-66
2021/12/20 06:22:10;;;;;;;3.37;2.27;;;;;;;;;;5071947;28;20227;-65
2021/12/20 06:24:38;;;;;;;6.67;4.27;;;;;;;;;;5071657;28;20306;-64
2021/12/20 06:27:05;;;;;;;8.70;3.47;;;;;;;;;;5071693;28;20227;-63
2021/12/20 06:29:33;;;;;;;5.53;3.50;;;;;;;;;;5070312;28;20694;-63
2021/12/20 06:32:00;;;;;;;4.27;2.87;;;;;;;;;;5071359;28;20518;-63
2021/12/20 06:34:29;;;;;;;6.73;4.67;;;;;;;;;;5071552;28;20588;-64
2021/12/20 06:36:59;;;;;;;4.13;2.90;;;;;;;;;;5071871;28;20227;-66
2021/12/20 06:39:31;;;;;;;7.17;4.33;;;;;;;;;;5071359;28;20599;-65
2021/12/20 06:41:59;;;;;;;4.53;3.57;;;;;;;;;;5071591;28;20227;-63
2021/12/20 06:44:26;;;;;;;5.13;3.53;;;;;;;;;;5071304;28;20219;-63
2021/12/20 06:46:54;;;;;;;5.40;2.83;;;;;;;;;;5070832;28;20318;-66
2021/12/20 06:49:21;;;;;;;8.47;3.87;;;;;;;;;;5057443;28;20231;-68
2021/12/20 06:51:49;;;;;;;7.90;4.13;;;;;;;;;;5051707;28;20232;-64
2021/12/20 06:54:18;;;;;;;6.17;4.53;;;;;;;;;;5050664;28;20224;-67
2021/12/20 06:56:46;;;;;;;5.47;4.33;;;;;;;;;;5037411;28;20764;-65
2021/12/20 06:59:13;;;;;;;8.60;6.47;;;;;;;;;;5031329;28;20224;-61
2021/12/20 07:01:41;;;;;;;5.10;4.37;;;;;;;;;;5033792;28;20425;-62
2021/12/20 07:04:12;;;;;;;4.07;3.27;;;;;;;;;;5035336;28;20216;-62
2021/12/20 07:06:39;;;;;;;5.27;3.90;;;;;;;;;;5034871;28;20794;-63
2021/12/20 07:09:07;;;;;;;4.40;3.37;;;;;;;;;;5035232;28;20277;-64
2021/12/20 07:11:35;;;;;;;4.07;3.00;;;;;;;;;;5035530;28;20228;-62
2021/12/20 07:14:02;;;;;;;3.97;2.83;;;;;;;;;;5035570;28;20229;-66
2021/12/20 07:16:33;;;;;;;3.23;2.73;;;;;;;;;;5034692;28;20236;-63
2021/12/20 07:19:01;;;;;;;5.07;2.50;;;;;;;;;;5055926;28;20709;-63
2021/12/20 07:21:28;;;;;;;3.70;2.37;;;;;;;;;;5074002;28;20250;-64
2021/12/20 07:23:56;;;;;;;2.57;2.00;;;;;;;;;;5075052;28;20230;-62
2021/12/20 07:26:24;;;;;;;3.60;2.57;;;;;;;;;;5074986;28;20223;-63
2021/12/20 07:28:51;;;;;;;2.17;1.70;;;;;;;;;;5074020;28;20227;-63
2021/12/20 07:31:20;;;;;;;3.13;2.77;;;;;;;;;;5074623;28;20235;-63
2021/12/20 07:33:47;;;;;;;3.80;2.40;;;;;;;;;;5074069;28;20223;-63
2021/12/20 07:36:18;;;;;;;2.83;1.93;;;;;;;;;;5074884;28;20682;-64
2021/12/20 07:38:46;;;;;;;3.73;2.57;;;;;;;;;;5075084;28;20573;-63
2021/12/20 07:41:17;;;;;;;1.97;1.57;;;;;;;;;;5074744;28;20219;-63
2021/12/20 07:43:45;;;;;;;3.40;2.60;;;;;;;;;;5075189;28;20246;-65
2021/12/20 07:46:12;;;;;;;3.03;2.07;;;;;;;;;;5073900;28;20235;-63
2021/12/20 07:48:39;;;;;;;2.80;2.30;;;;;;;;;;5067152;28;20270;-65
2021/12/20 07:51:06;;;;;;;3.47;2.00;;;;;;;;;;5054277;28;20238;-66
2021/12/20 07:53:34;;;;;;;1.67;1.30;;;;;;;;;;5054976;28;20219;-63
2021/12/20 07:56:02;;;;;;;2.13;1.53;;;;;;;;;;5053034;28;20286;-62
2021/12/20 07:58:29;;;;;;;4.63;2.30;;;;;;;;;;5054464;28;20782;-62
2021/12/20 08:00:58;;;;;;;4.27;2.37;;;;;;;;;;5053792;28;20216;-65
2021/12/20 08:03:25;;;;;;;3.03;2.10;;;;;;;;;;5054883;28;20220;-62
2021/12/20 08:05:52;;;;;;;1.07;1.00;;;;;;;;;;5053758;28;20238;-65
2021/12/20 08:08:20;;;;;;;2.63;2.27;;;;;;;;;;5054360;28;20234;-62
2021/12/20 08:10:47;;;;;;;3.73;2.13;;;;;;;;;;5054389;28;20262;-65
2021/12/20 08:13:16;;;;;;;4.27;1.90;;;;;;;;;;5052725;28;20255;-64
2021/12/20 08:15:43;;;;;;;3.13;2.23;;;;;;;;;;5053556;28;20247;-63
2021/12/20 08:18:10;;;;;;;2.33;2.00;;;;;;;;;;5057871;28;20261;-62
2021/12/20 08:20:37;;;;;;;2.10;1.70;;;;;;;;;;5073895;28;20219;-62
2021/12/20 08:23:05;;;;;;;3.00;1.80;;;;;;;;;;5074197;28;20231;-62
2021/12/20 08:25:32;;;;;;;2.37;1.87;;;;;;;;;;5074105;28;20230;-63
2021/12/20 08:27:59;;;;;;;3.67;2.30;;;;;;;;;;5073743;28;20235;-62
2021/12/20 08:30:27;;;;;;;2.33;1.67;;;;;;;;;;5073814;28;20721;-62
2021/12/20 08:32:54;;;;;;;1.87;1.00;;;;;;;;;;5072999;28;20220;-64
2021/12/20 08:35:21;;;;;;;3.00;1.67;;;;;;;;;;5074202;28;20223;-62
2021/12/20 08:37:50;;;;;;;3.27;1.70;;;;;;;;;;5073557;28;20242;-64
2021/12/20 08:40:17;;;;;;;3.50;1.30;;;;;;;;;;5074039;28;20280;-62
2021/12/20 08:42:45;;;;;;;1.60;1.20;;;;;;;;;;5065444;28;20223;-63
2021/12/20 08:45:15;;;;;;;3.00;1.37;;;;;;;;;;5053894;28;20223;-62
2021/12/20 08:47:44;;;;;;;1.93;1.40;;;;;;;;;;5052409;28;20231;-62
2021/12/20 08:50:15;;;;;;;1.53;1.20;;;;;;;;;;5054306;28;20263;-63
2021/12/20 08:52:42;;;;;;;1.83;1.57;;;;;;;;;;5054329;28;20249;-64
2021/12/20 08:55:10;;;;;;;2.60;2.07;;;;;;;;;;5054262;28;20675;-62
2021/12/20 08:57:39;;;;;;;3.50;1.83;;;;;;;;;;5054202;28;20299;-63
2021/12/20 09:00:15;;;;;;;2.20;1.50;;;;;;;;;;5053375;28;20204;-66
2021/12/20 09:02:42;;;;;;;2.80;1.77;;;;;;;;;;5054307;28;20187;-62
2021/12/20 09:05:10;;;;;;;3.10;1.90;;;;;;;;;;5054304;28;20200;-63
2021/12/20 09:07:40;;;;;;;3.47;1.80;;;;;;;;;;5054124;28;20226;-62
2021/12/20 09:10:09;;;;;;;2.03;1.77;;;;;;;;;;5053332;28;20203;-61
2021/12/20 09:12:37;;;;;;;4.10;1.80;;;;;;;;;;5053852;28;20204;-61
2021/12/20 09:15:06;;;;;;;7.00;1.87;;;;;;;;;;5054232;28;20212;-63
2021/12/20 09:17:33;;;;;;;3.10;2.03;;;;;;;;;;5054103;28;20318;-62
2021/12/20 09:20:01;;;;;;;1.77;1.50;;;;;;;;;;5054124;28;20207;-64
2021/12/20 09:22:30;;;;;;;1.90;1.37;;;;;;;;;;5054073;28;20557;-62
2021/12/20 09:24:57;;;;;;;2.67;1.73;;;;;;;;;;5053920;28;20204;-62
2021/12/20 09:27:24;;;;;;;2.40;1.50;;;;;;;;;;5053672;28;20204;-62
2021/12/20 09:29:51;;;;;;;2.57;1.53;;;;;;;;;;5053947;28;20209;-62
2021/12/20 09:32:19;;;;;;;4.77;1.90;;;;;;;;;;5053720;28;20204;-65
2021/12/20 09:34:46;;;;;;;3.30;2.30;;;;;;;;;;5053899;28;20207;-62
2021/12/20 09:37:13;;;;;;;2.27;1.43;;;;;;;;;;5053466;28;20682;-62
2021/12/20 09:39:42;;;;;;;1.70;1.40;;;;;;;;;;5053498;28;20675;-62
2021/12/20 09:42:12;;;;;;;1.83;1.33;;;;;;;;;;5053458;28;20226;-62
2021/12/20 09:44:43;;;;;;;1.17;1.07;;;;;;;;;;5053288;28;20717;-62
2021/12/20 09:47:11;;;;;;;2.60;1.30;;;;;;;;;;5053470;28;20211;-62
2021/12/20 09:49:38;;;;;;;1.27;1.17;;;;;;;;;;5053359;28;20236;-63
2021/12/20 09:52:06;;;;;;;1.30;1.20;;;;;;;;;;5053302;28;20699;-62
2021/12/20 09:54:34;;;;;;;1.93;1.00;;;;;;;;;;5053310;28;20204;-63
2021/12/20 09:57:02;;;;;;;1.57;1.30;;;;;;;;;;5053460;28;20196;-63
2021/12/20 09:59:30;;;;;;;2.07;1.50;;;;;;;;;;5053294;28;20224;-62
2021/12/20 10:01:58;;;;;;;3.07;1.20;;;;;;;;;;5053355;28;20207;-63
2021/12/20 10:04:26;;;;;;;2.03;1.60;;;;;;;;;;5053139;28;20340;-63
2021/12/20 10:06:58;;;;;;;2.33;1.80;;;;;;;;;;5052959;28;20238;-62
2021/12/20 10:09:28;;;;;;;1.63;1.30;;;;;;;;;;5053268;28;20196;-63
2021/12/20 10:12:23;;;;;;;2.00;1.73;;;;;;;;;;5052904;28;20231;-63
2021/12/20 10:14:59;;;;;;;3.23;2.17;;;;;;;;;;5053095;28;20193;-63
2021/12/20 10:17:35;;;;;;;3.80;2.53;;;;;;;;;;5053057;28;20192;-63
2021/12/20 10:20:23;;;;;;;4.00;2.17;;;;;;;;;;5052841;28;20238;-62
2021/12/20 10:22:52;;;;;;;3.43;2.00;;;;;;;;;;5052997;28;20192;-62
2021/12/20 10:25:30;;;;;;;3.77;1.83;;;;;;;;;;5053066;28;20203;-63
2021/12/20 10:28:24;;;;;;;2.07;1.70;;;;;;;;;;5052697;28;20600;-61
2021/12/20 10:30:57;;;;;;;1.93;1.30;;;;;;;;;;5052809;28;20717;-63
2021/12/20 10:33:25;;;;;;;2.13;1.37;;;;;;;;;;5051746;28;20184;-64
2021/12/20 10:35:58;;;;;;;3.50;1.60;;;;;;;;;;5052251;28;20207;-61
2021/12/20 10:38:38;;;;;;;2.33;1.70;;;;;;;;;;5052394;28;20219;-61
2021/12/20 10:41:29;;;;;;;2.90;1.70;;;;;;;;;;5052592;28;20195;-61
2021/12/20 10:44:00;;;;;;;1.53;1.33;;;;;;;;;;5052729;28;20219;-61
2021/12/20 10:46:34;;;;;;;3.00;1.93;;;;;;;;;;5052719;28;20195;-61
2021/12/20 10:49:05;;;;;;;2.70;1.10;;;;;;;;;;5052566;28;20196;-62
2021/12/20 10:51:37;;;;;;;3.30;1.70;;;;;;;;;;5052742;28;20192;-62
2021/12/20 10:54:10;;;;;;;1.97;1.13;;;;;;;;;;5052506;28;20188;-61
2021/12/20 10:56:58;;;;;;;5.20;1.67;;;;;;;;;;5052230;28;20636;-61
2021/12/20 10:59:28;;;;;;;4.60;2.20;;;;;;;;;;5052624;28;20243;-61
2021/12/20 11:04:48;;;;;;;3.07;2.40;;;;;;;;;;5052447;28;20192;-63
2021/12/20 11:10:00;;;;;;;3.80;1.80;;;;;;;;;;5052732;28;20188;-61
2021/12/20 11:12:31;;;;;;;3.27;1.97;;;;;;;;;;5052495;28;20246;-61
2021/12/20 11:15:11;;;;;;;3.13;2.10;;;;;;;;;;5052240;28;20659;-61
2021/12/20 11:17:43;;;;;;;1.60;1.30;;;;;;;;;;5052496;28;20188;-61
2021/12/20 11:20:17;;;;;;;1.43;1.33;;;;;;;;;;5052502;28;20203;-61
2021/12/20 11:22:45;;;;;;;2.63;1.70;;;;;;;;;;5052342;28;20198;-61
2021/12/20 11:25:13;;;;;;;2.47;1.90;;;;;;;;;;5051119;28;20196;-62
2021/12/20 11:27:53;;;;;;;4.13;1.53;;;;;;;;;;5051203;28;20235;-61
2021/12/20 11:30:26;;;;;;;2.43;1.60;;;;;;;;;;5051055;28;20195;-60
2021/12/20 11:32:54;;;;;;;1.80;1.70;;;;;;;;;;5052378;28;20188;-60
2021/12/20 11:35:24;;;;;;;3.27;2.10;;;;;;;;;;5052231;28;20207;-61
2021/12/20 11:37:51;;;;;;;3.73;1.90;;;;;;;;;;5051879;28;20659;-61
2021/12/20 11:40:20;;;;;;;4.17;1.83;;;;;;;;;;5052419;28;20204;-61
2021/12/20 11:42:50;;;;;;;2.03;1.40;;;;;;;;;;5052148;28;20204;-61
2021/12/20 11:45:19;;;;;;;4.57;1.57;;;;;;;;;;5052386;28;20250;-61
2021/12/20 11:47:52;;;;;;;2.00;1.33;;;;;;;;;;5053565;28;20663;-60
2021/12/20 11:50:22;;;;;;;2.67;1.17;;;;;;;;;;5055430;28;20255;-61
2021/12/20 11:52:53;;;;;;;4.23;1.40;;;;;;;;;;5055837;28;20207;-60
2021/12/20 11:55:28;;;;;;;1.40;1.30;;;;;;;;;;5055703;28;20197;-60
2021/12/20 11:58:00;;;;;;;13.80;1.30;;;;;;;;;;5055562;28;20210;-60
2021/12/20 12:00:36;;;;;;;0.93;0.93;;;;;;;;;;5055248;28;20202;-60
2021/12/20 12:03:05;;;;;;;1.27;0.90;;;;;;;;;;5055492;28;20230;-60
2021/12/20 12:05:54;;;;;;;1.63;1.00;;;;;;;;;;5055505;28;20204;-60
2021/12/20 12:08:25;;;;;;;0.93;0.87;;;;;;;;;;5055228;28;20188;-60
2021/12/20 12:11:00;;;;;;;1.00;1.00;;;;;;;;;;5055296;28;20246;-61
2021/12/20 12:13:29;;;;;;;1.57;1.23;;;;;;;;;;5055058;28;20199;-62
2021/12/20 12:16:02;;;;;;;1.40;1.30;;;;;;;;;;5053911;28;20594;-62
2021/12/20 12:18:47;;;;;;;1.27;1.00;;;;;;;;;;5055109;28;20216;-62
2021/12/20 12:21:33;;;;;;;2.30;1.20;;;;;;;;;;5055244;28;20215;-61
2021/12/20 12:24:16;;;;;;;2.00;1.27;;;;;;;;;;5055274;28;20279;-62
2021/12/20 12:26:50;;;;;;;1.93;1.33;;;;;;;;;;5054762;28;20678;-62
2021/12/20 12:29:18;;;;;;;2.23;1.57;;;;;;;;;;5055285;28;20279;-62
2021/12/20 12:31:49;;;;;;;1.77;1.50;;;;;;;;;;5055263;28;20200;-61
2021/12/20 12:34:17;;;;;;;2.20;1.50;;;;;;;;;;5054961;28;20215;-63
2021/12/20 12:36:45;;;;;;;2.40;1.40;;;;;;;;;;5054679;28;20208;-60
2021/12/20 12:39:23;;;;;;;2.00;1.80;;;;;;;;;;5054774;28;20235;-62
2021/12/20 12:41:58;;;;;;;2.13;1.70;;;;;;;;;;5053582;28;20275;-61
2021/12/20 12:44:30;;;;;;;1.70;1.57;;;;;;;;;;5054504;28;20192;-61
2021/12/20 12:47:12;;;;;;;2.43;1.40;;;;;;;;;;5054899;28;20188;-62
2021/12/20 12:49:42;;;;;;;2.67;1.80;;;;;;;;;;5053272;28;20232;-63
2021/12/20 12:52:16;;;;;;;1.97;1.37;;;;;;;;;;5045158;28;20244;-67
2021/12/20 12:55:08;;;;;;;1.80;1.60;;;;;;;;;;5050629;28;20219;-65
2021/12/20 12:57:37;;;;;;;2.80;1.10;;;;;;;;;;5060823;28;20276;-64
2021/12/20 13:00:08;;;;;;;1.30;1.20;;;;;;;;;;5060530;28;20286;-65
2021/12/20 13:02:41;;;;;;;1.87;1.30;;;;;;;;;;5063901;28;20228;-63
2021/12/20 13:05:14;;;;;;;2.00;1.57;;;;;;;;;;5065504;28;20224;-61
2021/12/20 13:07:54;;;;;;;1.10;0.93;;;;;;;;;;5066813;28;20226;-61
2021/12/20 13:10:30;;;;;;;1.70;1.27;;;;;;;;;;5073157;28;20231;-60
2021/12/20 13:13:07;;;;;;;1.67;1.30;;;;;;;;;;5073303;28;20219;-65
2021/12/20 13:18:26;;;;;;;1.53;0.90;;;;;;;;;;5072832;28;20223;-65
2021/12/20 13:23:26;;;;;;;1.53;1.27;;;;;;;;;;5072677;28;20223;-64
2021/12/20 13:25:56;;;;;;;1.80;1.47;;;;;;;;;;5073352;28;20223;-64
2021/12/20 13:28:30;;;;;;;1.83;1.50;;;;;;;;;;5072525;28;20713;-64
2021/12/20 13:31:12;;;;;;;1.90;1.43;;;;;;;;;;5073308;28;20223;-64
2021/12/20 13:33:53;;;;;;;4.40;1.20;;;;;;;;;;5072735;28;20223;-64
2021/12/20 13:36:26;;;;;;;2.10;1.20;;;;;;;;;;5069024;28;20609;-64
2021/12/20 13:38:55;;;;;;;2.03;1.43;;;;;;;;;;5052616;28;20244;-64
2021/12/20 13:41:26;;;;;;;1.57;1.20;;;;;;;;;;5051725;28;20226;-64
2021/12/20 13:44:01;;;;;;;0.90;0.90;;;;;;;;;;5052583;28;20311;-64
2021/12/20 13:49:11;;;;;;;2.03;1.20;;;;;;;;;;5053449;28;20196;-65
2021/12/20 13:51:40;;;;;;;1.33;1.10;;;;;;;;;;5053589;28;20187;-64
2021/12/20 13:54:18;;;;;;;1.43;1.10;;;;;;;;;;5053543;28;20204;-64
2021/12/20 13:57:14;;;;;;;1.13;1.03;;;;;;;;;;5053370;28;20211;-63
2021/12/20 13:59:51;;;;;;;1.27;1.10;;;;;;;;;;5053349;28;20262;-65
2021/12/20 14:02:23;;;;;;;1.83;1.10;;;;;;;;;;5053600;28;20192;-62
2021/12/20 14:04:52;;;;;;;1.47;1.23;;;;;;;;;;5053072;28;20246;-62
2021/12/20 14:07:31;;;;;;;1.43;0.90;;;;;;;;;;5053320;28;20246;-63
2021/12/20 14:09:59;;;;;;;1.03;1.00;;;;;;;;;;5052619;28;20195;-62
2021/12/20 14:12:48;;;;;;;2.47;1.30;;;;;;;;;;5052860;28;20283;-62
2021/12/20 14:15:24;;;;;;;1.47;1.00;;;;;;;;;;5051709;28;20231;-64
2021/12/20 14:17:56;;;;;;;1.20;1.10;;;;;;;;;;5058762;28;20223;-61
2021/12/20 14:20:44;;;;;;;1.90;1.40;;;;;;;;;;5062654;28;20227;-62
2021/12/20 14:23:17;;;;;;;1.77;1.40;;;;;;;;;;5064754;28;20281;-63
2021/12/20 14:25:47;;;;;;;1.77;1.40;;;;;;;;;;5062049;28;20326;-73
2021/12/20 14:28:18;;;;;;;1.40;1.20;;;;;;;;;;5057874;28;20223;-61
2021/12/20 14:30:51;;;;;;;19.70;2.03;;;;;;;;;;5030221;28;20225;-63
2021/12/20 14:33:27;;;;;;;1.50;1.30;;;;;;;;;;5031916;28;20271;-62
2021/12/20 14:36:07;;;;;;;2.70;1.40;;;;;;;;;;5031830;28;20721;-61
2021/12/20 14:38:37;;;;;;;1.53;1.30;;;;;;;;;;5031275;28;20235;-61
2021/12/20 14:41:18;;;;;;;1.97;1.10;;;;;;;;;;5032235;28;20228;-61
2021/12/20 14:43:48;;;;;;;1.23;1.10;;;;;;;;;;5031178;28;20315;-64
2021/12/20 14:46:35;;;;;;;2.00;1.50;;;;;;;;;;5032143;28;20231;-62
2021/12/20 14:49:17;;;;;;;3.47;1.30;;;;;;;;;;5031554;28;20468;-62
2021/12/20 14:51:45;;;;;;;1.47;1.20;;;;;;;;;;5031753;28;20228;-62
2021/12/20 14:54:19;;;;;;;0.83;0.83;;;;;;;;;;5037304;28;20228;-69
2021/12/20 14:56:55;;;;;;;1.23;1.07;;;;;;;;;;5051826;28;20591;-67
2021/12/20 14:59:28;;;;;;;2.30;1.20;;;;;;;;;;5059745;28;20289;-65
2021/12/20 15:01:58;;;;;;;0.87;0.87;;;;;;;;;;5071942;28;20227;-66
2021/12/20 15:04:26;;;;;;;1.90;1.27;;;;;;;;;;5064815;28;20219;-64
2021/12/20 15:07:02;;;;;;;0.90;0.90;;;;;;;;;;5051873;28;20254;-62
2021/12/20 15:09:30;;;;;;;1.07;1.00;;;;;;;;;;5051492;28;20235;-66
2021/12/20 15:12:06;;;;;;;1.67;1.10;;;;;;;;;;5051709;28;20215;-66
2021/12/20 15:14:36;;;;;;;2.30;1.00;;;;;;;;;;5049519;28;20234;-74
2021/12/20 15:17:05;;;;;;;1.20;1.10;;;;;;;;;;5051920;28;20235;-67
2021/12/20 15:19:32;;;;;;;1.00;0.90;;;;;;;;;;5051256;28;20711;-69
2021/12/20 15:21:59;;;;;;;0.90;0.90;;;;;;;;;;5052660;28;20228;-70
2021/12/20 15:24:26;;;;;;;1.40;1.10;;;;;;;;;;5055334;28;20224;-71
2021/12/20 15:26:54;;;;;;;1.57;1.03;;;;;;;;;;5055516;28;20558;-75
2021/12/20 15:29:30;;;;;;;1.17;0.80;;;;;;;;;;5065134;28;20592;-73
2021/12/20 15:31:58;;;;;;;0.97;0.97;;;;;;;;;;5076050;28;20315;-63
2021/12/20 15:34:26;;;;;;;1.20;1.10;;;;;;;;;;5075728;28;20249;-68